Adin, California
Current Conditions -  °F | °C
As of 5:55 AM on Sunday 25 Jan 2015 (Local Time) from KAAT Reporting Station
Clear Clear  
Wind Chill: 26°   Ceiling: Unl
Heat Index: 26°   Visibility: 8mi
Dew Point: 24°   Wind: 0mph
Humidity: 92%   Direction: NA
Pressure: 30.38"   Gusts: NA
Location:  41.19°N, 120.95°W
Report Text: KAAT 251355Z AUTO 00000KT 8SM CLR M03/M04 A3038 RMK AO2 SLP302 T10331044 $
Loading
Personal Weather Stations






























Interactive Weather Map New forecast layout! Learn more

10-Day Weather Forecast

Advertisements
Track Severe Weather on mobile